createdAt,value
2023-04-05T00:02:14.321Z,4.72
2023-04-05T00:04:59.010Z,5.55
2023-04-05T00:07:41.076Z,4.18
2023-04-05T00:10:08.399Z,5.57
2023-04-05T00:12:52.012Z,7.47
2023-04-05T00:15:19.316Z,6.47
2023-04-05T00:17:47.230Z,7.00
2023-04-05T00:20:21.090Z,7.88
2023-04-05T00:22:50.526Z,5.22
2023-04-05T00:25:18.857Z,8.68
2023-04-05T00:27:52.964Z,5.05
2023-04-05T00:30:23.598Z,4.45
2023-04-05T00:32:58.008Z,7.13
2023-04-05T00:35:27.783Z,4.38
2023-04-05T00:37:54.908Z,4.18
2023-04-05T00:40:28.962Z,8.45
2023-04-05T00:42:56.207Z,5.30
2023-04-05T00:45:30.093Z,6.97
2023-04-05T00:47:57.447Z,4.20
2023-04-05T00:50:24.754Z,8.70
2023-04-05T00:52:58.964Z,6.25
2023-04-05T00:55:26.683Z,6.68
2023-04-05T00:58:02.267Z,5.40
2023-04-05T01:00:30.324Z,3.88
2023-04-05T01:03:18.204Z,4.65
2023-04-05T01:05:48.838Z,3.35
2023-04-05T01:08:30.083Z,6.63
2023-04-05T01:11:03.820Z,6.30
2023-04-05T01:13:38.118Z,5.00
2023-04-05T01:16:05.414Z,4.90
2023-04-05T01:18:33.077Z,3.92
2023-04-05T01:21:19.070Z,7.47
2023-04-05T01:23:46.136Z,6.47
2023-04-05T01:26:39.026Z,4.10
2023-04-05T01:29:30.946Z,6.38
2023-04-05T01:32:01.794Z,5.93
2023-04-05T01:34:47.965Z,3.75
2023-04-05T01:37:16.639Z,8.15
2023-04-05T01:39:43.983Z,7.43
2023-04-05T01:42:18.006Z,7.43
2023-04-05T01:44:45.196Z,5.82
2023-04-05T01:47:19.068Z,7.07
2023-04-05T01:49:46.257Z,4.22
2023-04-05T01:52:13.599Z,5.55
2023-04-05T01:54:51.124Z,10.65
2023-04-05T01:57:18.346Z,5.72
2023-04-05T01:59:51.926Z,5.20
2023-04-05T02:02:19.302Z,5.28
2023-04-05T02:04:58.916Z,5.72
2023-04-05T02:07:27.203Z,8.43
2023-04-05T02:09:54.302Z,7.05
2023-04-05T02:12:29.042Z,7.63
2023-04-05T02:14:56.598Z,8.18
2023-04-05T02:17:23.684Z,10.23
2023-04-05T02:19:58.968Z,6.20
2023-04-05T02:22:26.565Z,9.35
2023-04-05T02:25:00.080Z,6.72
2023-04-05T02:27:27.318Z,6.15
2023-04-05T02:29:55.817Z,6.53
2023-04-05T02:32:30.097Z,6.18
2023-04-05T02:34:58.275Z,4.65
2023-04-05T02:37:33.153Z,5.90
2023-04-05T02:40:00.363Z,9.85
2023-04-05T02:42:27.584Z,9.18
2023-04-05T02:45:00.992Z,10.95
2023-04-05T02:47:28.235Z,12.27
2023-04-05T02:50:02.222Z,8.23
2023-04-05T02:52:29.400Z,6.50
2023-04-05T02:54:56.486Z,12.50
2023-04-05T02:57:30.306Z,10.48
2023-04-05T02:59:57.561Z,7.65
2023-04-05T03:02:24.805Z,7.97
2023-04-05T03:05:01.009Z,6.70
2023-04-05T03:07:28.213Z,9.48
2023-04-05T03:10:02.175Z,4.47
2023-04-05T03:12:29.355Z,8.45
2023-04-05T03:14:56.432Z,8.68
2023-04-05T03:17:30.027Z,7.05
2023-04-05T03:19:57.504Z,7.03
2023-04-05T03:24:58.757Z,11.38
2023-04-05T03:27:27.209Z,10.15
2023-04-05T03:30:01.085Z,5.53
2023-04-05T03:32:28.264Z,9.82
2023-04-05T03:35:02.088Z,9.95
2023-04-05T03:37:29.534Z,9.60
2023-04-05T03:42:30.061Z,9.60
2023-04-05T03:44:57.594Z,9.10
2023-04-05T03:47:24.782Z,7.63
2023-04-05T03:49:59.084Z,8.57
2023-04-05T03:52:27.051Z,13.57
2023-04-05T03:55:01.134Z,8.60
2023-04-05T03:57:29.540Z,9.10
2023-04-05T03:59:56.648Z,8.30
2023-04-05T04:02:30.088Z,10.27
2023-04-05T04:05:04.514Z,8.27
2023-04-05T04:07:38.145Z,10.43
2023-04-05T04:10:06.531Z,10.25
2023-04-05T04:12:33.652Z,9.68
2023-04-05T04:15:08.076Z,8.30
2023-04-05T04:17:36.171Z,10.30
2023-04-05T04:20:18.026Z,8.55
2023-04-05T04:22:45.954Z,8.02
2023-04-05T04:25:37.129Z,8.80
2023-04-05T04:28:12.566Z,7.15
2023-04-05T04:30:50.215Z,8.88
2023-04-05T04:33:17.569Z,6.85
2023-04-05T04:38:26.046Z,7.57
2023-04-05T04:40:53.900Z,7.85
2023-04-05T04:43:34.126Z,13.90
2023-04-05T04:46:01.354Z,9.27
2023-04-05T04:48:35.273Z,8.90
2023-04-05T04:51:03.218Z,9.38
2023-04-05T04:53:30.361Z,8.05
2023-04-05T04:56:04.082Z,14.38
2023-04-05T04:58:31.266Z,14.48
2023-04-05T05:01:06.288Z,6.95
2023-04-05T05:03:42.118Z,6.43
2023-04-05T05:06:32.158Z,9.70
2023-04-05T05:08:59.450Z,5.78
2023-04-05T05:11:28.895Z,6.88
2023-04-05T05:14:03.004Z,8.52
2023-04-05T05:16:30.398Z,6.18
2023-04-05T05:21:31.417Z,8.02
2023-04-05T05:23:58.567Z,14.73
2023-04-05T05:26:33.024Z,6.28
2023-04-05T05:29:03.151Z,9.10
2023-04-05T05:31:39.177Z,5.88
2023-04-05T05:34:06.715Z,9.23
2023-04-05T05:36:33.824Z,13.32
2023-04-05T05:39:08.148Z,6.05
2023-04-05T05:41:35.472Z,10.48
2023-04-05T05:44:09.121Z,9.68
2023-04-05T05:46:36.469Z,12.50
2023-04-05T05:49:03.634Z,8.02
2023-04-05T05:51:43.130Z,7.32
2023-04-05T05:54:10.452Z,7.75
2023-04-05T05:56:44.261Z,6.30
2023-04-05T05:59:18.130Z,9.73
2023-04-05T06:01:53.094Z,10.27
2023-04-05T06:04:41.042Z,18.23
2023-04-05T06:07:15.049Z,8.60
2023-04-05T06:09:42.398Z,10.90
2023-04-05T06:12:09.698Z,16.35
2023-04-05T06:14:43.130Z,12.02
2023-04-05T06:17:10.773Z,19.20
2023-04-05T06:19:44.087Z,12.07
2023-04-05T06:22:11.618Z,9.23
2023-04-05T06:27:11.963Z,6.82
2023-04-05T06:29:39.428Z,5.45
2023-04-05T06:34:47.156Z,12.02
2023-04-05T06:37:14.331Z,10.82
2023-04-05T06:39:41.461Z,8.57
2023-04-05T06:42:15.031Z,6.75
2023-04-05T06:44:42.320Z,8.57
2023-04-05T06:47:17.167Z,5.75
2023-04-05T06:49:44.430Z,13.40
2023-04-05T06:52:11.595Z,5.50
2023-04-05T06:54:46.131Z,6.55
2023-04-05T06:57:13.347Z,8.13
2023-04-05T06:59:47.069Z,5.70
2023-04-05T07:02:14.302Z,7.00
2023-04-05T07:04:55.188Z,6.00
2023-04-05T07:07:22.338Z,7.43
2023-04-05T07:09:49.444Z,8.77
2023-04-05T07:12:26.061Z,7.25
2023-04-05T07:14:53.250Z,6.68
2023-04-05T07:17:27.413Z,12.10
2023-04-05T07:19:54.794Z,6.93
2023-04-05T07:22:21.953Z,6.05
2023-04-05T07:24:56.044Z,8.25
2023-04-05T07:27:23.192Z,6.22
2023-04-05T07:29:57.006Z,6.95
2023-04-05T07:32:24.573Z,5.93
2023-04-05T07:34:52.070Z,8.98
2023-04-05T07:37:26.153Z,5.85
2023-04-05T07:39:53.447Z,7.38
2023-04-05T07:42:28.259Z,6.47
2023-04-05T07:44:55.481Z,7.70
2023-04-05T07:47:23.151Z,4.80
2023-04-05T07:49:57.047Z,9.73
2023-04-05T07:52:24.208Z,3.00
2023-04-05T07:54:59.142Z,4.63
2023-04-05T07:57:27.351Z,2.88
2023-04-05T07:59:55.869Z,5.75
2023-04-05T08:02:30.137Z,5.75
2023-04-05T08:05:04.089Z,3.10
2023-04-05T08:07:48.151Z,4.03
2023-04-05T08:10:15.923Z,2.95
2023-04-05T08:12:50.060Z,7.13
2023-04-05T08:15:17.321Z,5.18
2023-04-05T08:17:51.193Z,3.58
2023-04-05T08:20:18.413Z,4.78
2023-04-05T08:22:45.507Z,7.57
2023-04-05T08:25:19.060Z,2.10
2023-04-05T08:27:46.491Z,8.98
2023-04-05T08:30:20.193Z,6.15
2023-04-05T08:32:47.413Z,7.22
2023-04-05T08:35:14.538Z,3.35
2023-04-05T08:37:48.069Z,1.90
2023-04-05T08:40:15.433Z,3.22
2023-04-05T08:43:09.071Z,2.72
2023-04-05T08:45:44.874Z,2.70
2023-04-05T08:48:19.044Z,4.85
2023-04-05T08:50:59.068Z,3.42
2023-04-05T08:53:26.268Z,2.53
2023-04-05T08:55:55.882Z,3.25
2023-04-05T08:58:30.075Z,4.18
2023-04-05T09:00:58.119Z,2.28
2023-04-05T09:03:34.250Z,4.72
2023-04-05T09:06:08.554Z,3.17
2023-04-05T09:08:42.168Z,4.20
2023-04-05T09:11:09.439Z,3.95
2023-04-05T09:13:36.682Z,2.70
2023-04-05T09:16:11.120Z,2.60
2023-04-05T09:18:38.342Z,5.57
2023-04-05T09:21:12.189Z,2.90
2023-04-05T09:23:39.708Z,3.67
2023-04-05T09:28:49.091Z,1.65
2023-04-05T09:31:38.626Z,4.18
2023-04-05T09:34:13.246Z,2.35
2023-04-05T09:36:45.774Z,2.70
2023-04-05T09:39:12.892Z,3.05
2023-04-05T09:41:48.129Z,5.78
2023-04-05T09:44:15.354Z,4.20
2023-04-05T09:46:50.070Z,6.57
2023-04-05T09:49:42.174Z,3.75
2023-04-05T09:52:29.068Z,4.03
2023-04-05T09:54:57.600Z,4.30
2023-04-05T09:57:34.088Z,2.45
2023-04-05T10:00:01.338Z,3.25
2023-04-05T10:02:45.234Z,4.97
2023-04-05T10:05:19.064Z,3.20
2023-04-05T10:07:53.146Z,3.50
2023-04-05T10:10:22.456Z,2.97
2023-04-05T10:12:57.145Z,2.92
2023-04-05T10:15:25.081Z,3.40
2023-04-05T10:17:56.474Z,2.35
2023-04-05T10:20:31.130Z,2.78
2023-04-05T10:23:28.179Z,2.42
2023-04-05T10:25:55.427Z,3.58
2023-04-05T10:28:40.172Z,4.78
2023-04-05T10:31:37.793Z,5.55
2023-04-05T10:34:15.997Z,5.28
2023-04-05T10:36:50.392Z,4.40
2023-04-05T10:39:32.213Z,2.17
2023-04-05T10:42:07.801Z,3.78
2023-04-05T10:44:43.145Z,3.28
2023-04-05T10:47:11.568Z,2.05
2023-04-05T10:49:38.855Z,5.30
2023-04-05T10:52:13.079Z,3.58
2023-04-05T10:54:41.614Z,2.40
2023-04-05T10:57:16.075Z,1.58
2023-04-05T10:59:44.696Z,2.85
2023-04-05T11:02:12.346Z,6.28
2023-04-05T11:07:24.123Z,3.25
2023-04-05T11:10:01.403Z,2.15
2023-04-05T11:12:57.300Z,3.17
2023-04-05T11:15:37.280Z,3.15
2023-04-05T11:18:04.564Z,1.73
2023-04-05T11:20:48.281Z,2.92
2023-04-05T11:23:16.812Z,4.95
2023-04-05T11:26:13.164Z,2.95
2023-04-05T11:28:41.134Z,1.05
2023-04-05T11:31:23.210Z,2.75
2023-04-05T11:34:00.584Z,3.28
2023-04-05T11:36:39.189Z,3.90
2023-04-05T11:39:18.890Z,1.25
2023-04-05T11:42:00.217Z,4.90
2023-04-05T11:44:27.602Z,2.15
2023-04-05T11:46:55.063Z,1.75
2023-04-05T11:51:56.481Z,2.85
2023-04-05T11:54:40.158Z,1.13
2023-04-05T11:57:12.544Z,2.80
2023-04-05T11:59:46.321Z,1.60
2023-04-05T12:02:13.871Z,2.47
2023-04-05T12:07:21.308Z,0.68
2023-04-05T12:10:23.053Z,1.70
2023-04-05T12:12:51.837Z,2.28
2023-04-05T12:15:26.068Z,1.80
2023-04-05T12:17:54.742Z,1.15
2023-04-05T12:20:33.071Z,1.98
2023-04-05T12:25:34.122Z,1.52
2023-04-05T12:28:09.088Z,2.55
2023-04-05T12:30:44.165Z,1.77
2023-04-05T12:33:11.393Z,2.40
2023-04-05T12:35:39.676Z,2.95
2023-04-05T12:38:15.169Z,2.53
2023-04-05T12:40:42.304Z,1.55
2023-04-05T12:43:16.256Z,1.85
2023-04-05T12:45:44.452Z,1.20
2023-04-05T12:48:15.834Z,2.60
2023-04-05T12:50:51.125Z,1.85
2023-04-05T12:53:20.465Z,2.78
2023-04-05T12:55:58.349Z,3.65
2023-04-05T12:58:36.990Z,2.92
2023-04-05T13:01:11.319Z,2.30
2023-04-05T13:03:38.926Z,2.03
2023-04-05T13:08:53.098Z,1.17
2023-04-05T13:11:27.169Z,0.80
2023-04-05T13:13:54.420Z,4.40
2023-04-05T13:16:21.810Z,3.25
2023-04-05T13:18:55.236Z,1.45
2023-04-05T13:21:22.449Z,4.22
2023-04-05T13:23:56.352Z,2.75
2023-04-05T13:26:23.568Z,2.30
2023-04-05T13:28:50.756Z,3.22
2023-04-05T13:31:24.210Z,2.63
2023-04-05T13:33:51.451Z,2.20
2023-04-05T13:36:25.104Z,2.75
2023-04-05T13:38:52.430Z,2.75
2023-04-05T13:41:19.510Z,1.75
2023-04-05T13:43:53.316Z,1.10
2023-04-05T13:46:20.501Z,2.45
2023-04-05T13:48:47.703Z,1.45
2023-04-05T13:51:21.252Z,3.53
2023-04-05T13:53:48.624Z,2.05
2023-04-05T13:56:22.101Z,4.43
2023-04-05T13:58:49.486Z,0.98
2023-04-05T14:01:16.727Z,2.70
2023-04-05T14:03:50.463Z,2.38
2023-04-05T14:06:24.202Z,2.40
2023-04-05T14:09:02.191Z,2.15
2023-04-05T14:11:29.380Z,2.35
2023-04-05T14:13:56.506Z,1.98
2023-04-05T14:16:30.347Z,0.98
2023-04-05T14:18:57.684Z,6.30
2023-04-05T14:21:32.172Z,1.25
2023-04-05T14:23:59.658Z,1.10
2023-04-05T14:26:27.206Z,3.03
2023-04-05T14:29:01.166Z,5.20
2023-04-05T14:31:28.398Z,4.45
2023-04-05T14:34:02.113Z,2.88
2023-04-05T14:36:29.388Z,2.05
2023-04-05T14:38:56.540Z,2.17
2023-04-05T14:41:30.102Z,2.25
2023-04-05T14:43:57.396Z,1.80
2023-04-05T14:46:24.562Z,2.00
2023-04-05T14:48:58.308Z,3.85
2023-04-05T14:51:26.009Z,2.38
2023-04-05T14:53:53.186Z,3.03
2023-04-05T14:56:27.357Z,1.45
2023-04-05T14:58:54.693Z,2.20
2023-04-05T15:01:28.157Z,2.40
2023-04-05T15:03:55.689Z,2.47
2023-04-05T15:06:36.256Z,2.08
2023-04-05T15:09:03.644Z,3.83
2023-04-05T15:11:34.195Z,1.60
2023-04-05T15:14:13.285Z,2.47
2023-04-05T15:16:45.521Z,2.05
2023-04-05T15:19:19.394Z,2.13
2023-04-05T15:21:46.639Z,2.10
2023-04-05T15:24:13.774Z,1.80
2023-04-05T15:26:48.227Z,1.13
2023-04-05T15:29:15.617Z,2.30
2023-04-05T15:31:49.391Z,2.75
2023-04-05T15:34:16.769Z,2.15
2023-04-05T15:36:43.858Z,0.73
2023-04-05T15:39:17.158Z,1.80
2023-04-05T15:41:44.370Z,1.98
2023-04-05T15:44:18.318Z,2.15
2023-04-05T15:46:45.750Z,1.00
2023-04-05T15:49:14.718Z,2.72
2023-04-05T15:51:50.546Z,4.45
2023-04-05T15:54:20.997Z,3.38
2023-04-05T15:56:55.313Z,1.92
2023-04-05T15:59:22.534Z,2.67
2023-04-05T16:01:49.664Z,11.43
2023-04-05T16:04:23.452Z,2.45
2023-04-05T16:06:57.229Z,2.35
2023-04-05T16:09:31.354Z,2.78
2023-04-05T16:11:59.574Z,1.17
2023-04-05T16:14:33.234Z,3.13
2023-04-05T16:17:02.652Z,2.97
2023-04-05T16:19:29.853Z,2.47
2023-04-05T16:22:03.419Z,3.90
2023-04-05T16:24:33.080Z,1.20
2023-04-05T16:27:07.601Z,3.15
2023-04-05T16:29:35.381Z,4.25
2023-04-05T16:32:16.358Z,1.92
2023-04-05T16:34:43.617Z,3.35
2023-04-05T16:37:10.783Z,1.25
2023-04-05T16:39:51.179Z,3.95
2023-04-05T16:42:18.332Z,1.27
2023-04-05T16:44:52.302Z,2.97
2023-04-05T16:47:19.476Z,1.98
2023-04-05T16:49:46.576Z,2.35
2023-04-05T16:52:20.454Z,2.25
2023-04-05T16:54:49.259Z,2.00
2023-04-05T16:57:16.365Z,3.30
2023-04-05T16:59:50.293Z,3.78
2023-04-05T17:02:18.062Z,3.20
2023-04-05T17:04:53.306Z,3.58
2023-04-05T17:07:27.273Z,1.85
2023-04-05T17:10:01.253Z,2.58
2023-04-05T17:12:35.161Z,5.22
2023-04-05T17:15:03.072Z,3.95
2023-04-05T17:17:30.513Z,1.65
2023-04-05T17:20:04.199Z,1.80
2023-04-05T17:22:34.394Z,5.32
2023-04-05T17:25:12.574Z,5.25
2023-04-05T17:30:07.032Z,6.60
2023-04-05T17:32:41.332Z,3.08
2023-04-05T17:35:08.656Z,7.47
2023-04-05T17:37:42.595Z,4.90
2023-04-05T17:40:09.904Z,3.65
2023-04-05T17:42:37.002Z,2.72
2023-04-05T17:45:11.224Z,2.30
2023-04-05T17:47:38.619Z,2.88
2023-04-05T17:50:12.175Z,4.50
2023-04-05T17:52:39.386Z,6.75
2023-04-05T17:55:13.369Z,4.57
2023-04-05T17:57:40.852Z,4.65
2023-04-05T18:00:08.319Z,4.55
2023-04-05T18:02:45.681Z,3.38
2023-04-05T18:05:19.205Z,2.50
2023-04-05T18:07:53.354Z,3.55
2023-04-05T18:10:21.244Z,2.75
2023-04-05T18:12:48.344Z,3.22
2023-04-05T18:15:22.193Z,7.13
2023-04-05T18:17:49.388Z,3.53
2023-04-05T18:20:23.461Z,3.53
2023-04-05T18:22:50.652Z,3.20
2023-04-05T18:25:19.014Z,2.72
2023-04-05T18:27:55.216Z,3.95
2023-04-05T18:30:22.572Z,3.72
2023-04-05T18:32:56.428Z,4.32
2023-04-05T18:35:23.634Z,4.25
2023-04-05T18:37:50.795Z,3.70
2023-04-05T18:40:24.266Z,5.20
2023-04-05T18:42:51.438Z,4.43
2023-04-05T18:45:25.405Z,4.50
2023-04-05T18:47:52.600Z,5.60
2023-04-05T18:50:20.132Z,4.68
2023-04-05T18:55:21.674Z,4.15
2023-04-05T18:57:55.497Z,3.40
2023-04-05T19:00:23.098Z,4.47
2023-04-05T19:05:24.378Z,5.45
2023-04-05T19:07:58.174Z,7.05
2023-04-05T19:10:32.353Z,5.28
2023-04-05T19:12:59.572Z,7.10
2023-04-05T19:15:27.497Z,4.25
2023-04-05T19:18:01.370Z,4.38
2023-04-05T19:20:28.572Z,4.35
2023-04-05T19:23:02.495Z,4.90
2023-04-05T19:25:29.767Z,4.43
2023-04-05T19:27:57.125Z,5.30
2023-04-05T19:30:31.277Z,3.35
2023-04-05T19:32:58.458Z,4.03
2023-04-05T19:35:32.420Z,5.57
2023-04-05T19:37:59.643Z,5.47
2023-04-05T19:40:27.019Z,6.63
2023-04-05T19:43:01.231Z,7.53
2023-04-05T19:45:29.501Z,8.13
2023-04-05T19:48:04.412Z,4.97
2023-04-05T19:51:12.168Z,9.05
2023-04-05T19:53:56.233Z,8.50
2023-04-05T19:56:25.658Z,5.55
2023-04-05T19:59:07.575Z,6.72
2023-04-05T20:01:38.835Z,4.43
2023-04-05T20:04:15.511Z,5.07
2023-04-05T20:06:53.161Z,6.28
2023-04-05T20:09:28.304Z,4.28
2023-04-05T20:12:03.491Z,13.90
2023-04-05T20:14:48.231Z,3.63
2023-04-05T20:17:18.105Z,5.35
2023-04-05T20:20:13.390Z,11.57
2023-04-05T20:22:40.754Z,10.18
2023-04-05T20:25:33.300Z,7.72
2023-04-05T20:28:00.490Z,8.02
2023-04-05T20:30:27.581Z,7.60
2023-04-05T20:33:01.329Z,7.28
2023-04-05T20:35:32.604Z,7.72
2023-04-05T20:37:59.767Z,5.57
2023-04-05T20:40:34.518Z,11.43
2023-04-05T20:43:01.768Z,9.23
2023-04-05T20:45:28.845Z,6.28
2023-04-05T20:48:02.458Z,8.18
2023-04-05T20:50:29.677Z,6.30
2023-04-05T20:52:57.370Z,8.15
2023-04-05T20:55:31.562Z,5.68
2023-04-05T20:58:05.163Z,6.47
2023-04-05T21:00:48.479Z,9.15
2023-04-05T21:03:22.287Z,7.65
2023-04-05T21:06:04.229Z,8.32
2023-04-05T21:08:38.210Z,6.60
2023-04-05T21:11:05.996Z,9.57
2023-04-05T21:13:33.589Z,8.40
2023-04-05T21:18:34.556Z,9.52
2023-04-05T21:21:08.281Z,9.77
2023-04-05T21:23:35.652Z,6.53
2023-04-05T21:26:04.426Z,5.78
2023-04-05T21:28:38.653Z,7.25
2023-04-05T21:31:05.974Z,6.50
2023-04-05T21:33:46.409Z,6.90
2023-04-05T21:36:14.165Z,7.63
2023-04-05T21:38:41.364Z,6.10
2023-04-05T21:41:15.251Z,8.70
2023-04-05T21:43:42.403Z,7.25
2023-04-05T21:46:17.177Z,7.57
2023-04-05T21:48:45.516Z,10.30
2023-04-05T21:51:12.678Z,7.28
2023-04-05T21:53:46.263Z,9.52
2023-04-05T21:56:13.483Z,7.47
2023-04-05T21:58:48.423Z,10.05
2023-04-05T22:01:15.689Z,11.02
2023-04-05T22:03:42.811Z,9.50
2023-04-05T22:06:16.248Z,7.57
2023-04-05T22:08:53.032Z,7.13
2023-04-05T22:11:27.256Z,6.60
2023-04-05T22:13:54.429Z,7.25
2023-04-05T22:16:28.374Z,9.13
2023-04-05T22:18:55.632Z,8.23
2023-04-05T22:21:22.790Z,10.95
2023-04-05T22:23:56.240Z,8.00
2023-04-05T22:26:23.486Z,7.78
2023-04-05T22:28:57.389Z,9.05
2023-04-05T22:31:24.582Z,9.57
2023-04-05T22:33:52.047Z,9.75
2023-04-05T22:36:25.389Z,8.85
2023-04-05T22:38:54.249Z,7.97
2023-04-05T22:41:21.555Z,9.40
2023-04-05T22:43:55.237Z,11.32
2023-04-05T22:46:22.486Z,10.82
2023-04-05T22:48:56.516Z,9.80
2023-04-05T22:51:23.760Z,14.93
2023-04-05T22:53:50.895Z,9.68
2023-04-05T22:56:28.332Z,11.13
2023-04-05T22:58:55.553Z,17.15
2023-04-05T23:01:29.711Z,10.68
2023-04-05T23:03:56.919Z,13.02
2023-04-05T23:06:39.171Z,13.27
2023-04-05T23:09:10.748Z,12.85
2023-04-05T23:11:45.283Z,13.75
2023-04-05T23:14:19.183Z,12.68
2023-04-05T23:16:53.431Z,14.70
2023-04-05T23:19:20.572Z,13.90
2023-04-05T23:21:47.694Z,14.30
2023-04-05T23:24:21.362Z,14.73
2023-04-05T23:26:48.567Z,15.98
2023-04-05T23:29:22.420Z,12.32
2023-04-05T23:31:49.621Z,13.68
2023-04-05T23:34:16.849Z,15.98
2023-04-05T23:36:50.317Z,15.18
2023-04-05T23:39:17.533Z,13.57
2023-04-05T23:41:44.642Z,12.15
2023-04-05T23:44:18.278Z,12.63
2023-04-05T23:46:45.526Z,10.57
2023-04-05T23:49:19.351Z,10.90
2023-04-05T23:51:46.547Z,11.95
2023-04-05T23:54:13.699Z,11.32
2023-04-05T23:56:47.390Z,10.68
2023-04-05T23:59:14.648Z,11.90
